Audubon, IA (50025)

11:16 PM CDT on July 27, 2016 (GMT -0500)
IEM | | Change Station

Elev 1397 ft 41.71 °N, 94.92 °W | Updated 27 minutes ago

Partly Cloudy
Partly Cloudy
70 °F
Feels Like 70 °F
N
0
Wind Variable Wind from North
Gusts 0.0 mph

Today
High -- | Low -- °F
--% Chance of Precip.
Yesterday
High -- | Low -- °F
Precip. -- in
Pressure 29.98 in
Visibility 10.0 miles
Clouds Few 3900 ft
Dew Point 64 °F
Humidity 83%
Rainfall in
Snow Depth Not available.
6:09 AM 8:42 PM
Last Quarter, 36% visible
METAR KAIO 280355Z AUTO 00000KT 10SM FEW039 21/20 A2998 RMK AO2
Pressure 29.98 in
Visibility 10.0 miles
Clouds Few 3900 ft
Dew Point 64 °F
Humidity 83%
Rainfall in
Snow Depth Not available.
6:09 AM 8:42 PM
Last Quarter, 36% visible
METAR KAIO 280355Z AUTO 00000KT 10SM FEW039 21/20 A2998 RMK AO2

10-Day Weather Forecast

Almanac

Astronomy

Jul. 27, 2016 Rise Set
Actual Time
Civil Twilight
Nautical Twilight
Astronomical Twilight
Moon
Length of Visible Light
Length of Day
Tomorrow will be .
, % of the Moon is Illuminated

Today's Extremes

State Highs State Lows

Community

WunderPhotos

Upload Photos

1,928,045 photos uploaded!

WunderBlog® & News

Nearby

Air Quality

  Air Quality AQ Index Pollutant
Not available.

Snow Depth

Station Depth Elevation

Earthquake Activity

City Distance Mag. Time & Date
Minimum magnitude displayed is 2.5.

Coastal Water Temperatures

Place Temperature

Stations

Nearby Weather Stations

Station Location Temp. Windchill Dew Point Humidity Wind Precip. Elev Updated Type
                   

Watches & Warnings

There are currently no watches in effect.